Terminal Aerodrome Forecast
Issued by NWS

Current Version | Previous Version | Text Only | Print | Product List | Glossary On
Versions: 1 2 3 4 5 6 7 8 9 10 11 12 13 14 15 16
000
FTUS43 KGRB 201700
TAFMTW
TAF
KMTW 201721Z 2018/2118 32005KT P6SM OVC035
     FM202200 17004KT P6SM OVC030
     FM210300 VRB03KT 5SM BR OVC025
     FM210700 VRB03KT 4SM -FZDZ BR OVC018
     FM211100 18004KT 4SM -FZDZ BR OVC012
     FM211500 16009KT 5SM -FZDZ BR OVC015=

USA.gov is the U.S. government's official web portal to all federal, state and local government web resources and services.